Malone, Texas
Current Conditions -  °F | °C
As of 2:35 AM on Saturday 20 Dec 2014 (Local Time) from KINJ Reporting Station
Haze Haze  
Wind Chill: 45°   Ceiling: 700
Heat Index: 47°   Visibility: 4mi
Dew Point: 45°   Wind: 6mph
Humidity: 90%   Direction: 340°NNW
Pressure: 30.2"   Gusts: NA
Location:  31.92°N, 96.89°W
Report Text: KINJ 200835Z AUTO 34005KT 4SM BR BKN007 OVC011 09/07 A3020 RMK AO2 T00860071
Loading
Personal Weather Stations






























Interactive Weather Map New forecast layout! Learn more

10-Day Weather Forecast

Advertisements
Track Severe Weather on mobile